Time;durP1;ratioP1;P1;durP2;ratioP2;P2;SDS_P1;SDS_P2;PMS_P1;PMS_P2;Temp;Humidity;BMP_temperature;BMP_pressure;BME280_temperature;BME280_humidity;BME280_pressure;Samples;Min_cycle;Max_cycle;Signal;HPM_P1;HPM_P2
2023/07/07 00:01:15;;;;;;;7.07;5.78;;;;;;;20.25;42.70;94933.44;5029785;28;20209;-86
2023/07/07 00:03:41;;;;;;;6.40;5.80;;;;;;;20.28;42.21;94917.25;5029732;28;20237;-84
2023/07/07 00:06:08;;;;;;;7.45;6.10;;;;;;;20.32;42.26;94934.81;5029895;28;20213;-84
2023/07/07 00:08:35;;;;;;;6.80;6.00;;;;;;;20.38;42.12;94942.72;5029984;28;20693;-86
2023/07/07 00:11:04;;;;;;;6.15;5.60;;;;;;;20.28;42.31;94951.25;5030076;28;20226;-86
2023/07/07 00:13:31;;;;;;;6.45;5.85;;;;;;;20.19;42.82;94958.00;5029634;28;20284;-84
2023/07/07 00:16:01;;;;;;;7.85;5.95;;;;;;;20.17;42.83;94968.69;5029577;28;20206;-86
2023/07/07 00:18:30;;;;;;;6.47;5.80;;;;;;;20.22;42.77;94975.78;5029254;28;20198;-86
2023/07/07 00:20:58;;;;;;;7.30;6.50;;;;;;;20.27;42.90;94983.66;5029397;28;20226;-83
2023/07/07 00:23:25;;;;;;;8.30;6.25;;;;;;;20.27;42.83;94989.66;5029151;28;20276;-84
2023/07/07 00:25:59;;;;;;;7.30;5.93;;;;;;;20.20;43.32;94993.56;5029882;28;20206;-84
2023/07/07 00:28:26;;;;;;;7.25;5.63;;;;;;;20.12;43.45;95000.03;5009869;28;20204;-86
2023/07/07 00:30:52;;;;;;;8.23;5.90;;;;;;;20.17;43.53;95034.06;5008888;28;20219;-87
2023/07/07 00:33:19;;;;;;;6.45;5.50;;;;;;;20.12;43.66;95007.88;5009388;28;20222;-88
2023/07/07 00:35:48;;;;;;;6.75;5.75;;;;;;;20.18;43.29;95011.31;5013122;28;20635;-86
2023/07/07 00:38:14;;;;;;;6.53;5.63;;;;;;;20.15;43.94;95038.75;5024237;28;20193;-87
2023/07/07 00:40:41;;;;;;;6.60;5.68;;;;;;;20.16;43.25;94995.88;5047340;28;20193;-87
2023/07/07 00:43:11;;;;;;;5.35;4.85;;;;;;;20.14;43.34;94997.94;5054036;28;20229;-88
2023/07/07 00:45:37;;;;;;;6.20;5.63;;;;;;;20.16;43.15;94987.25;5054660;28;20288;-86
2023/07/07 00:48:08;;;;;;;6.07;5.25;;;;;;;20.11;43.33;95002.88;5041082;28;20238;-86
2023/07/07 00:50:43;;;;;;;6.18;5.57;;;;;;;20.04;43.90;95008.31;5033822;28;20217;-86
2023/07/07 00:53:12;;;;;;;6.85;6.05;;;;;;;19.98;44.05;95014.56;5035499;28;20229;-84
2023/07/07 00:55:43;;;;;;;5.57;5.07;;;;;;;19.91;44.27;95013.97;5033669;28;20198;-82
2023/07/07 00:58:15;;;;;;;6.38;5.78;;;;;;;19.91;44.03;95019.19;5033158;28;20237;-84
2023/07/07 01:00:46;;;;;;;7.13;5.53;;;;;;;19.49;45.83;95035.47;5033528;28;20194;-85
2023/07/07 01:03:16;;;;;;;7.22;5.43;;;;;;;19.40;46.50;95064.88;5032883;28;20253;-86
2023/07/07 01:05:45;;;;;;;5.78;5.18;;;;;;;19.47;46.27;95058.41;5033775;28;20325;-84
2023/07/07 01:08:13;;;;;;;5.97;5.43;;;;;;;19.51;45.83;95056.94;5033094;28;20675;-84
2023/07/07 01:10:39;;;;;;;6.07;5.57;;;;;;;19.58;45.86;95067.19;5032956;28;20237;-84
2023/07/07 01:13:06;;;;;;;6.47;5.75;;;;;;;19.66;45.37;95058.91;5033351;28;20233;-88
2023/07/07 01:15:39;;;;;;;7.25;6.05;;;;;;;19.48;46.44;95082.72;5033754;28;20289;-87
2023/07/07 01:18:20;;;;;;;6.30;5.70;;;;;;;19.20;47.61;95094.13;5033679;28;20213;-88
2023/07/07 01:21:01;;;;;;;5.93;5.32;;;;;;;19.27;47.30;95095.53;5033511;28;20717;-86
2023/07/07 01:23:53;;;;;;;6.45;5.35;;;;;;;19.39;46.94;95100.66;5033083;28;20321;-86
2023/07/07 01:26:53;;;;;;;7.07;5.38;;;;;;;19.49;46.53;95097.34;5035684;28;20284;-87
2023/07/07 01:29:43;;;;;;;6.88;5.32;;;;;;;19.51;46.42;95103.16;5052520;28;20201;-89
2023/07/07 01:32:16;;;;;;;5.47;4.97;;;;;;;19.51;46.51;95100.53;5051888;28;20220;-87
2023/07/07 01:38:06;;;;;;;7.30;5.40;;;;;;;19.54;46.03;95082.56;5039352;28;20188;-87
2023/07/07 01:40:43;;;;;;;6.10;5.50;;;;;;;19.54;46.40;95095.63;5032694;28;20202;-87
2023/07/07 01:43:14;;;;;;;6.00;5.40;;;;;;;19.49;46.26;95084.28;5032153;28;20313;-86
2023/07/07 01:45:47;;;;;;;5.78;4.82;;;;;;;19.54;45.77;95077.34;5032226;28;20248;-89
2023/07/07 01:48:23;;;;;;;5.93;5.40;;;;;;;19.52;45.75;95061.13;5031792;28;20225;-86
2023/07/07 01:50:52;;;;;;;6.00;5.50;;;;;;;19.52;45.67;95071.56;5032094;28;20396;-87
2023/07/07 01:53:23;;;;;;;5.90;5.30;;;;;;;19.43;46.03;95070.41;5032342;28;20222;-87
2023/07/07 01:55:52;;;;;;;5.47;4.97;;;;;;;19.48;45.49;95052.16;5032464;28;20567;-87
2023/07/07 01:58:20;;;;;;;5.78;4.80;;;;;;;19.51;45.46;95056.94;5032455;28;20703;-87
2023/07/07 02:00:49;;;;;;;5.60;4.40;;;;;;;19.53;45.61;95080.19;5032095;28;20563;-87
2023/07/07 02:03:18;;;;;;;5.43;4.93;;;;;;;19.48;45.38;95044.34;5031809;28;20221;-88
2023/07/07 02:05:45;;;;;;;5.63;5.13;;;;;;;19.49;45.03;95038.09;5032169;28;20201;-88
2023/07/07 02:08:11;;;;;;;5.30;4.80;;;;;;;19.42;45.34;95032.28;5032133;28;20209;-87
2023/07/07 02:10:38;;;;;;;5.72;4.80;;;;;;;19.26;46.03;95061.81;5032162;28;20390;-86
2023/07/07 02:13:04;;;;;;;5.53;4.88;;;;;;;19.17;46.01;95042.41;5031805;28;20218;-88
2023/07/07 02:15:30;;;;;;;5.60;5.03;;;;;;;19.05;47.25;95070.47;5031872;28;20198;-88
2023/07/07 02:17:57;;;;;;;5.78;4.68;;;;;;;19.12;46.90;95078.88;5031532;28;20617;-87
2023/07/07 02:20:25;;;;;;;6.00;5.05;;;;;;;19.16;46.52;95053.91;5031853;28;20206;-86
2023/07/07 02:22:51;;;;;;;5.85;4.97;;;;;;;19.20;46.30;95071.44;5031230;28;20255;-87
2023/07/07 02:25:17;;;;;;;5.00;4.50;;;;;;;19.27;45.95;95060.81;5031497;28;20214;-86
2023/07/07 02:27:44;;;;;;;6.55;4.53;;;;;;;19.30;45.88;95068.94;5046090;28;20205;-87
2023/07/07 02:30:11;;;;;;;5.32;4.82;;;;;;;19.34;45.72;95064.03;5050624;28;20705;-86
2023/07/07 02:32:38;;;;;;;5.57;5.07;;;;;;;19.29;45.90;95071.78;5039050;28;20684;-86
2023/07/07 02:35:06;;;;;;;4.95;4.45;;;;;;;19.22;45.94;95052.94;5049641;28;20240;-84
2023/07/07 02:37:34;;;;;;;5.82;4.45;;;;;;;19.28;45.52;95046.72;5051073;28;20202;-85
2023/07/07 02:40:00;;;;;;;6.10;4.68;;;;;;;19.22;45.81;95045.88;5030693;28;20198;-87
2023/07/07 02:42:28;;;;;;;5.10;4.60;;;;;;;19.25;45.70;95049.81;5031125;28;20202;-87
2023/07/07 02:44:55;;;;;;;5.20;4.70;;;;;;;19.31;45.50;95067.13;5030874;28;20222;-87
2023/07/07 02:47:21;;;;;;;6.88;4.40;;;;;;;19.36;45.48;95066.41;5030756;28;21069;-86
2023/07/07 02:49:48;;;;;;;4.97;4.47;;;;;;;19.40;45.14;95055.22;5031085;28;20282;-88
2023/07/07 02:52:15;;;;;;;7.57;4.60;;;;;;;19.29;45.44;95038.66;5030972;28;20219;-88
2023/07/07 02:54:42;;;;;;;5.00;4.50;;;;;;;19.30;45.39;95035.00;5030815;28;20300;-87
2023/07/07 02:57:09;;;;;;;6.80;4.95;;;;;;;19.22;45.50;95030.22;5030187;28;20209;-86
2023/07/07 02:59:35;;;;;;;5.68;4.88;;;;;;;19.19;45.45;95014.25;5031028;28;20427;-86
2023/07/07 03:02:01;;;;;;;5.20;4.47;;;;;;;19.09;45.70;95012.31;5030736;28;20571;-87
2023/07/07 03:04:28;;;;;;;5.22;4.72;;;;;;;19.19;45.04;95009.84;5031228;28;20222;-86
2023/07/07 03:06:55;;;;;;;4.65;4.13;;;;;;;19.19;45.20;94996.00;5031221;28;20256;-87
2023/07/07 03:09:21;;;;;;;5.05;4.55;;;;;;;19.15;45.21;95015.78;5031049;28;20204;-86
2023/07/07 03:11:49;;;;;;;5.63;4.60;;;;;;;19.15;45.72;95034.84;5030519;28;20226;-86
2023/07/07 03:14:18;;;;;;;4.55;4.15;;;;;;;19.15;45.50;95034.84;5031073;28;20214;-87
2023/07/07 03:16:46;;;;;;;4.38;3.97;;;;;;;19.13;45.77;95033.50;5030746;28;20202;-88
2023/07/07 03:19:13;;;;;;;4.70;4.03;;;;;;;19.06;45.89;95023.22;5030979;28;20285;-87
2023/07/07 03:21:40;;;;;;;4.43;4.03;;;;;;;19.10;45.68;95026.94;5030446;28;20195;-87
2023/07/07 03:24:07;;;;;;;4.72;4.22;;;;;;;19.01;45.77;95011.97;5030280;28;20225;-86
2023/07/07 03:26:33;;;;;;;5.50;4.22;;;;;;;19.00;45.77;95013.00;5034090;28;20197;-86
2023/07/07 03:29:01;;;;;;;4.95;4.28;;;;;;;18.93;45.90;95010.56;5040127;28;20233;-87
2023/07/07 03:31:31;;;;;;;5.75;4.15;;;;;;;18.87;46.36;95035.00;5049183;28;20221;-86
2023/07/07 03:33:59;;;;;;;4.60;4.15;;;;;;;18.89;46.05;95025.09;5050290;28;20222;-87
2023/07/07 03:36:29;;;;;;;4.90;4.38;;;;;;;18.88;45.79;95007.88;5050187;28;20202;-86
2023/07/07 03:38:56;;;;;;;5.32;4.00;;;;;;;18.88;46.01;95010.47;5038434;28;20226;-87
2023/07/07 03:41:25;;;;;;;4.30;3.90;;;;;;;18.81;46.58;95028.16;5030287;28;20298;-87
2023/07/07 03:43:53;;;;;;;4.47;3.70;;;;;;;18.80;46.39;95022.13;5029947;28;20726;-88
2023/07/07 03:46:22;;;;;;;4.80;4.30;;;;;;;18.90;45.67;95024.88;5030276;28;20213;-86
2023/07/07 03:48:50;;;;;;;4.85;4.20;;;;;;;18.83;46.36;95032.09;5030194;28;20721;-86
2023/07/07 03:51:17;;;;;;;5.10;3.83;;;;;;;18.80;46.76;95060.47;5029888;28;20229;-86
2023/07/07 03:53:44;;;;;;;5.25;4.32;;;;;;;18.67;47.39;95055.56;5030034;28;20226;-86
2023/07/07 03:56:11;;;;;;;5.55;4.10;;;;;;;18.74;46.54;95010.06;5030006;28;20679;-87
2023/07/07 03:58:38;;;;;;;4.95;4.50;;;;;;;18.81;46.14;95033.38;5030722;28;20296;-88
2023/07/07 04:01:06;;;;;;;4.90;4.40;;;;;;;18.88;45.86;95023.53;5031413;28;20206;-87
2023/07/07 04:03:34;;;;;;;4.57;4.07;;;;;;;18.89;45.87;95025.09;5031258;28;20268;-87
2023/07/07 04:06:01;;;;;;;4.10;3.70;;;;;;;18.97;45.57;95025.50;5031139;28;20202;-87
2023/07/07 04:08:28;;;;;;;4.78;4.05;;;;;;;19.00;45.75;95042.47;5031483;28;20260;-87
2023/07/07 04:10:59;;;;;;;5.05;4.13;;;;;;;19.08;45.38;95036.03;5035007;28;20233;-85
2023/07/07 04:13:26;;;;;;;4.38;3.97;;;;;;;18.98;45.72;95024.47;5035575;28;20248;-84
2023/07/07 04:16:00;;;;;;;4.43;3.95;;;;;;;19.05;45.50;95034.69;5036096;28;20205;-86
2023/07/07 04:18:26;;;;;;;5.13;4.25;;;;;;;19.11;45.19;95027.72;5036085;28;20198;-84
2023/07/07 04:20:54;;;;;;;5.10;3.95;;;;;;;19.09;45.02;95017.53;5040214;28;20185;-87
2023/07/07 04:23:20;;;;;;;5.07;4.57;;;;;;;19.11;44.78;94996.41;5054440;28;20677;-85
2023/07/07 04:25:47;;;;;;;4.32;3.85;;;;;;;19.20;44.31;95003.59;5047035;28;20193;-87
2023/07/07 04:28:14;;;;;;;7.13;4.43;;;;;;;19.15;44.91;95031.44;5055673;28;20201;-85
2023/07/07 04:30:40;;;;;;;7.53;4.20;;;;;;;19.28;44.60;95039.69;5054497;28;20221;-85
2023/07/07 04:33:06;;;;;;;4.50;4.10;;;;;;;19.26;44.50;95025.28;5054849;28;20278;-85
2023/07/07 04:35:36;;;;;;;5.47;4.93;;;;;;;19.26;44.56;95012.22;5054401;28;20275;-83
2023/07/07 04:38:03;;;;;;;5.03;4.38;;;;;;;19.35;44.06;95023.84;5050813;28;20197;-84
2023/07/07 04:40:31;;;;;;;5.10;4.43;;;;;;;19.36;44.40;95054.13;5035387;28;20647;-84
2023/07/07 04:42:57;;;;;;;6.63;4.13;;;;;;;19.45;43.70;95012.69;5034356;28;20579;-86
2023/07/07 04:45:23;;;;;;;4.90;4.05;;;;;;;19.43;43.21;94986.84;5040121;28;20283;-84
2023/07/07 04:47:50;;;;;;;4.47;4.07;;;;;;;19.51;43.10;94983.81;5032509;28;20214;-85
2023/07/07 04:50:16;;;;;;;4.25;3.85;;;;;;;19.58;42.87;94984.41;5034360;28;20727;-84
2023/07/07 04:52:43;;;;;;;5.50;4.10;;;;;;;19.68;42.09;94952.38;5035007;28;20276;-85
2023/07/07 04:55:12;;;;;;;4.68;4.03;;;;;;;19.82;41.79;94968.44;5035211;28;20486;-87
2023/07/07 04:57:39;;;;;;;4.85;4.28;;;;;;;19.88;42.01;94993.56;5034006;28;20202;-86
2023/07/07 05:00:08;;;;;;;4.93;4.07;;;;;;;19.92;41.88;94981.56;5034285;28;20197;-84
2023/07/07 05:02:35;;;;;;;5.35;4.05;;;;;;;19.91;41.74;94969.53;5034086;28;20202;-86
2023/07/07 05:05:01;;;;;;;4.45;3.95;;;;;;;19.97;41.56;94979.78;5034502;28;20229;-86
2023/07/07 05:07:29;;;;;;;6.90;4.07;;;;;;;20.13;40.89;94956.38;5034663;28;20209;-87
2023/07/07 05:09:56;;;;;;;3.97;3.67;;;;;;;20.24;40.24;94937.09;5034260;28;20206;-87
2023/07/07 05:12:23;;;;;;;3.85;3.53;;;;;;;20.33;40.02;94930.38;5033830;28;20226;-83
2023/07/07 05:14:52;;;;;;;4.68;3.95;;;;;;;20.43;39.80;94946.13;5034078;28;20635;-85
2023/07/07 05:17:18;;;;;;;5.05;3.85;;;;;;;20.53;39.40;94940.19;5034184;28;20221;-86
2023/07/07 05:19:45;;;;;;;4.60;4.07;;;;;;;20.53;38.99;94887.88;5033450;28;20620;-85
2023/07/07 05:22:11;;;;;;;4.50;4.10;;;;;;;20.60;39.16;94898.88;5050074;28;20328;-85
2023/07/07 05:24:37;;;;;;;4.75;4.13;;;;;;;20.68;39.07;94893.16;5034466;28;20272;-88
2023/07/07 05:27:05;;;;;;;4.28;3.53;;;;;;;20.79;38.63;94905.22;5033887;28;20248;-88
2023/07/07 05:29:32;;;;;;;5.60;4.03;;;;;;;20.71;39.02;94903.09;5034175;28;20238;-88
2023/07/07 05:31:59;;;;;;;5.70;4.57;;;;;;;20.80;39.25;94951.28;5033654;28;20699;-87
2023/07/07 05:34:25;;;;;;;5.95;4.65;;;;;;;20.90;39.10;94966.25;5033993;28;20229;-87
2023/07/07 05:36:52;;;;;;;6.72;6.00;;;;;;;20.88;38.79;94911.53;5033823;28;20202;-87
2023/07/07 05:39:18;;;;;;;15.93;12.48;;;;;;;20.95;38.74;94937.47;5032518;28;20225;-86
2023/07/07 05:41:44;;;;;;;4.63;4.18;;;;;;;21.00;38.37;94885.91;5038338;28;20233;-88
2023/07/07 05:44:11;;;;;;;5.78;3.88;;;;;;;21.07;37.73;94861.34;5033339;28;20238;-87
2023/07/07 05:46:38;;;;;;;11.18;10.07;;;;;;;21.13;38.29;94915.28;5033291;28;20206;-87
2023/07/07 05:49:05;;;;;;;6.25;5.50;;;;;;;21.22;37.79;94900.66;5032117;28;20237;-87
2023/07/07 05:51:31;;;;;;;5.57;4.72;;;;;;;21.22;37.20;94814.25;5032302;28;20234;-87
2023/07/07 05:53:58;;;;;;;4.95;4.53;;;;;;;21.25;37.63;94851.19;5032599;28;20237;-87
2023/07/07 05:56:26;;;;;;;5.07;4.68;;;;;;;21.24;38.68;94927.38;5032814;28;20202;-87
2023/07/07 05:58:54;;;;;;;4.47;3.75;;;;;;;21.21;39.16;94960.09;5032530;28;20253;-86
2023/07/07 06:01:20;;;;;;;4.15;3.75;;;;;;;21.25;37.66;94838.09;5033680;28;20202;-88
2023/07/07 06:03:48;;;;;;;5.20;4.05;;;;;;;21.36;37.37;94820.53;5033973;28;20920;-88
2023/07/07 06:06:14;;;;;;;5.38;4.78;;;;;;;21.36;37.67;94862.44;5034419;28;20202;-89
2023/07/07 06:08:41;;;;;;;7.03;5.00;;;;;;;21.49;37.77;94898.59;5034132;28;20210;-88
2023/07/07 06:11:08;;;;;;;5.90;4.35;;;;;;;21.58;38.30;94969.59;5034203;28;20229;-88
2023/07/07 06:13:34;;;;;;;6.03;4.47;;;;;;;21.71;37.99;94995.31;5033877;28;20241;-89
2023/07/07 06:16:01;;;;;;;5.20;4.60;;;;;;;21.74;37.81;94936.34;5034932;28;20827;-88
2023/07/07 06:18:27;;;;;;;14.93;4.45;;;;;;;21.80;37.80;94964.09;5049609;28;20195;-89
2023/07/07 06:20:57;;;;;;;5.13;4.63;;;;;;;21.79;37.52;94897.00;5034721;28;20252;-88
2023/07/07 06:23:24;;;;;;;5.50;4.55;;;;;;;21.81;35.78;94753.41;5034498;28;20602;-89
2023/07/07 06:25:52;;;;;;;4.85;4.43;;;;;;;21.90;35.31;94715.13;5035026;28;20276;-88
2023/07/07 06:28:19;;;;;;;7.13;6.03;;;;;;;22.01;35.74;94811.81;5053572;28;20212;-89
2023/07/07 06:30:47;;;;;;;5.00;4.50;;;;;;;22.00;35.52;94749.97;5053206;28;20198;-87
2023/07/07 06:33:13;;;;;;;4.45;4.05;;;;;;;21.97;34.29;94574.06;5052970;28;20232;-87
2023/07/07 06:35:40;;;;;;;4.22;3.83;;;;;;;22.00;33.56;94506.16;5038173;28;20202;-87
2023/07/07 06:38:07;;;;;;;8.63;7.35;;;;;;;22.15;33.44;94528.06;5033948;28;20202;-88
2023/07/07 06:40:34;;;;;;;4.38;3.78;;;;;;;22.11;33.76;94487.75;5034525;28;20202;-87
2023/07/07 06:43:01;;;;;;;4.40;4.00;;;;;;;22.23;33.40;94543.22;5033962;28;20264;-88
2023/07/07 06:45:27;;;;;;;4.80;4.18;;;;;;;22.28;32.62;94454.81;5034249;28;20206;-87
2023/07/07 06:47:54;;;;;;;5.85;4.72;;;;;;;22.39;32.94;94500.06;5033694;28;20663;-88
2023/07/07 06:50:25;;;;;;;4.82;4.32;;;;;;;22.47;33.57;94582.66;5032793;28;20212;-86
2023/07/07 06:52:51;;;;;;;4.97;4.10;;;;;;;22.44;32.03;94373.34;5032458;28;20226;-88
2023/07/07 06:55:20;;;;;;;4.40;3.65;;;;;;;22.42;31.35;94273.19;5033247;28;20202;-86
2023/07/07 06:57:46;;;;;;;4.45;3.80;;;;;;;22.44;32.19;94378.59;5032579;28;20198;-88
2023/07/07 07:00:14;;;;;;;4.43;4.03;;;;;;;22.47;31.40;94292.25;5033510;28;20297;-87
2023/07/07 07:02:41;;;;;;;4.60;4.03;;;;;;;22.52;31.83;94317.63;5033552;28;20190;-88
2023/07/07 07:05:08;;;;;;;4.38;3.97;;;;;;;22.56;31.34;94268.78;5034303;28;20881;-89
2023/07/07 07:07:34;;;;;;;7.25;4.07;;;;;;;22.66;31.38;94327.16;5034098;28;20202;-88
2023/07/07 07:10:02;;;;;;;4.70;4.00;;;;;;;22.72;31.26;94291.91;5033599;28;20210;-88
2023/07/07 07:12:32;;;;;;;5.07;4.60;;;;;;;22.72;31.03;94260.41;5037845;28;20285;-88
2023/07/07 07:14:58;;;;;;;7.95;3.88;;;;;;;22.84;32.50;94425.38;5046617;28;20239;-87
2023/07/07 07:17:25;;;;;;;4.97;3.97;;;;;;;22.91;31.07;94307.69;5048680;28;20194;-89
2023/07/07 07:19:52;;;;;;;4.20;3.80;;;;;;;23.01;31.38;94352.16;5033815;28;20202;-87
2023/07/07 07:22:19;;;;;;;7.30;3.80;;;;;;;23.04;30.62;94272.84;5032986;28;20194;-87
2023/07/07 07:24:47;;;;;;;4.20;3.78;;;;;;;23.19;31.88;94411.00;5031620;28;20799;-85
2023/07/07 07:27:13;;;;;;;7.97;5.90;;;;;;;23.34;30.99;94387.16;5042928;28;20223;-87
2023/07/07 07:29:42;;;;;;;4.15;3.75;;;;;;;23.39;30.09;94266.22;5053982;28;20819;-87
2023/07/07 07:32:09;;;;;;;4.82;4.28;;;;;;;23.46;29.55;94200.19;5035315;28;20214;-89
2023/07/07 07:34:35;;;;;;;6.90;4.85;;;;;;;23.53;29.46;94218.22;5033975;28;20222;-87
2023/07/07 07:37:03;;;;;;;5.75;4.18;;;;;;;23.68;29.76;94294.13;5033303;28;20368;-88
2023/07/07 07:39:30;;;;;;;4.88;3.75;;;;;;;23.54;27.60;93934.16;5033334;28;20209;-87
2023/07/07 07:41:57;;;;;;;6.03;4.18;;;;;;;23.66;27.96;94005.38;5033846;28;20639;-89
2023/07/07 07:44:25;;;;;;;6.60;4.13;;;;;;;23.73;27.48;93929.50;5033717;28;20222;-88
2023/07/07 07:46:55;;;;;;;4.13;3.75;;;;;;;23.82;27.29;93911.19;5033417;28;20202;-88
2023/07/07 07:49:22;;;;;;;4.65;3.90;;;;;;;23.91;27.63;93976.94;5032899;28;20225;-88
2023/07/07 07:51:48;;;;;;;6.30;3.83;;;;;;;24.01;26.17;93835.50;5032957;28;20596;-87
2023/07/07 07:54:18;;;;;;;4.90;4.22;;;;;;;24.17;27.24;94025.25;5032791;28;20218;-87
2023/07/07 07:56:45;;;;;;;9.10;4.65;;;;;;;24.27;27.03;93959.25;5032271;28;20674;-89
2023/07/07 07:59:12;;;;;;;4.10;3.75;;;;;;;24.31;25.46;93736.63;5032920;28;20252;-88
2023/07/07 08:01:38;;;;;;;4.45;4.00;;;;;;;24.20;24.84;93561.78;5032191;28;20205;-87
2023/07/07 08:04:07;;;;;;;5.88;4.10;;;;;;;24.29;25.57;93688.81;5031845;28;20217;-87
2023/07/07 08:06:34;;;;;;;4.68;4.28;;;;;;;24.42;25.25;93663.44;5035238;28;20807;-88
2023/07/07 08:09:01;;;;;;;4.35;3.95;;;;;;;24.39;23.24;93286.03;5042040;28;20205;-88
2023/07/07 08:11:57;;;;;;;4.13;3.78;;;;;;;24.41;22.32;93164.72;5046239;28;20213;-88
2023/07/07 08:14:30;;;;;;;4.40;4.00;;;;;;;24.54;23.00;93282.06;5053395;28;20225;-88
2023/07/07 08:16:58;;;;;;;4.35;3.95;;;;;;;24.79;23.74;93510.13;5053370;28;20211;-90
2023/07/07 08:19:25;;;;;;;5.25;3.88;;;;;;;24.84;21.81;93197.78;5033007;28;20240;-87
2023/07/07 08:21:51;;;;;;;4.38;3.83;;;;;;;24.95;22.60;93262.16;5031447;28;20194;-88
2023/07/07 08:24:18;;;;;;;3.85;3.55;;;;;;;25.11;20.88;93045.28;5031242;28;20248;-88
2023/07/07 08:26:46;;;;;;;4.25;3.63;;;;;;;25.22;21.13;93065.91;5033838;28;20203;-88
2023/07/07 08:29:14;;;;;;;4.30;3.83;;;;;;;25.32;19.91;92894.28;5030678;28;20210;-87
2023/07/07 08:31:40;;;;;;;4.20;3.80;;;;;;;25.50;20.54;93069.44;5030389;28;20206;-87
2023/07/07 08:34:07;;;;;;;4.63;3.70;;;;;;;25.57;18.45;92707.91;5029929;28;20222;-88
2023/07/07 08:36:33;;;;;;;4.82;3.63;;;;;;;25.65;15.01;92011.38;5030491;28;20582;-88
2023/07/07 08:39:02;;;;;;;4.38;3.72;;;;;;;25.66;14.35;91662.50;5030392;28;20801;-88
2023/07/07 08:41:29;;;;;;;4.10;3.65;;;;;;;25.87;15.49;91920.16;5030525;28;20876;-87
2023/07/07 08:43:56;;;;;;;4.25;3.85;;;;;;;26.05;16.64;92164.38;5029377;28;20284;-87
2023/07/07 08:46:32;;;;;;;6.03;3.95;;;;;;;26.29;17.86;92458.63;5029624;28;20208;-88
2023/07/07 08:49:05;;;;;;;5.90;3.60;;;;;;;26.29;17.03;92349.69;5010396;28;20229;-87
2023/07/07 08:51:37;;;;;;;5.25;4.13;;;;;;;26.29;18.15;92403.25;5009856;28;20219;-87
2023/07/07 08:54:10;;;;;;;7.07;3.50;;;;;;;26.27;16.89;92180.50;5009753;28;20229;-87
2023/07/07 08:56:46;;;;;;;8.77;4.25;;;;;;;26.29;16.05;92026.09;5012449;28;20207;-87
2023/07/07 08:59:22;;;;;;;6.13;5.50;;;;;;;26.36;15.98;92039.31;5014391;28;20206;-89
2023/07/07 09:01:57;;;;;;;6.55;5.93;;;;;;;26.28;15.50;91934.88;5014425;28;20268;-87
2023/07/07 09:04:34;;;;;;;4.55;4.15;;;;;;;26.42;15.33;91886.78;5017915;28;20229;-87
2023/07/07 09:07:19;;;;;;;4.35;3.95;;;;;;;26.53;16.36;92129.59;5042353;28;20198;-88
2023/07/07 09:09:59;;;;;;;5.85;4.40;;;;;;;26.58;14.97;91807.38;5052449;28;20720;-88
2023/07/07 09:12:34;;;;;;;5.50;4.13;;;;;;;26.55;15.02;91771.94;5052816;28;20221;-88
2023/07/07 09:15:03;;;;;;;4.03;3.72;;;;;;;26.58;15.19;91728.22;5052999;28;20225;-90
2023/07/07 09:17:34;;;;;;;5.18;4.15;;;;;;;26.65;15.98;91868.88;5047601;28;20209;-88
2023/07/07 09:20:04;;;;;;;4.97;4.47;;;;;;;26.80;14.59;91704.19;5033548;28;20844;-88
2023/07/07 09:22:36;;;;;;;4.93;4.43;;;;;;;27.04;15.98;91964.19;5032266;28;20202;-89
2023/07/07 09:25:08;;;;;;;4.40;4.00;;;;;;;27.22;15.58;91959.00;5012116;28;20231;-88
2023/07/07 09:27:39;;;;;;;4.10;3.80;;;;;;;27.36;14.05;91694.91;5038640;28;20205;-90
2023/07/07 09:30:14;;;;;;;4.18;3.88;;;;;;;27.44;13.88;91736.06;5053222;28;20201;-88
2023/07/07 09:32:42;;;;;;;4.63;4.22;;;;;;;27.51;13.81;91709.66;5052304;28;20308;-88
2023/07/07 09:35:12;;;;;;;5.18;4.47;;;;;;;27.49;14.05;91666.25;5051840;28;20256;-88
2023/07/07 09:37:50;;;;;;;5.88;4.57;;;;;;;27.30;13.75;91442.88;5052611;28;20209;-88
2023/07/07 09:40:19;;;;;;;5.45;4.28;;;;;;;27.57;14.35;91678.34;5033156;28;20206;-87
2023/07/07 09:42:56;;;;;;;5.10;4.60;;;;;;;27.72;13.88;91623.59;5032476;28;20199;-88
2023/07/07 09:45:31;;;;;;;4.75;4.30;;;;;;;27.78;13.36;91509.19;5031886;28;20206;-87
2023/07/07 09:48:09;;;;;;;6.20;4.30;;;;;;;27.85;14.19;91611.50;5031466;28;20240;-89
2023/07/07 09:50:46;;;;;;;5.07;4.57;;;;;;;28.02;12.99;91543.84;5030666;28;20198;-87
2023/07/07 09:53:19;;;;;;;4.35;3.95;;;;;;;27.91;13.34;91477.78;5031520;28;20233;-87
2023/07/07 09:55:46;;;;;;;4.57;4.18;;;;;;;27.87;13.51;91441.94;5031242;28;20260;-88
2023/07/07 09:58:17;;;;;;;4.63;4.22;;;;;;;27.97;13.13;91404.13;5031376;28;20221;-88
2023/07/07 10:00:47;;;;;;;5.10;4.60;;;;;;;28.24;13.62;91606.16;5031794;28;20613;-91
2023/07/07 10:03:21;;;;;;;4.55;4.15;;;;;;;28.30;13.41;91477.63;5040989;28;20221;-87
2023/07/07 10:05:50;;;;;;;4.97;4.50;;;;;;;28.17;11.86;91156.53;5050713;28;20288;-86
2023/07/07 10:08:16;;;;;;;6.45;5.72;;;;;;;28.30;13.07;91342.69;5049684;28;20701;-85
2023/07/07 10:10:43;;;;;;;5.07;4.60;;;;;;;28.44;12.95;91419.34;5044385;28;20206;-84
2023/07/07 10:13:09;;;;;;;4.95;4.40;;;;;;;28.30;12.02;91133.75;5030583;28;20238;-83
2023/07/07 10:15:50;;;;;;;4.70;4.07;;;;;;;28.44;12.62;91226.19;5030749;28;20588;-84
2023/07/07 10:18:22;;;;;;;5.18;4.78;;;;;;;28.65;12.90;91417.66;5030582;28;20194;-84
2023/07/07 10:20:48;;;;;;;5.40;4.40;;;;;;;28.70;11.58;91182.41;5031687;28;20202;-84
2023/07/07 10:23:15;;;;;;;5.28;4.78;;;;;;;28.92;13.32;91492.72;5036327;28;21001;-84
2023/07/07 10:25:43;;;;;;;5.38;4.88;;;;;;;29.02;11.38;91150.28;5030626;28;20268;-87
2023/07/07 10:28:15;;;;;;;4.68;4.28;;;;;;;28.92;11.69;91084.97;5048704;28;20228;-88
2023/07/07 10:30:43;;;;;;;5.22;4.72;;;;;;;28.85;12.73;91202.31;5049807;28;20205;-87
2023/07/07 10:33:12;;;;;;;5.13;4.63;;;;;;;28.96;11.98;91199.53;5050368;28;20652;-87
2023/07/07 10:35:40;;;;;;;8.48;4.78;;;;;;;29.02;11.99;91099.22;5049475;28;20197;-87
2023/07/07 10:38:09;;;;;;;5.10;4.68;;;;;;;28.92;12.09;91053.19;5044306;28;20198;-87
2023/07/07 10:40:37;;;;;;;5.07;4.63;;;;;;;29.03;11.52;91103.38;5028837;28;20209;-87
2023/07/07 10:43:05;;;;;;;4.80;4.40;;;;;;;28.98;11.49;91001.28;5028915;28;20194;-88
2023/07/07 10:45:31;;;;;;;5.25;4.75;;;;;;;29.12;11.84;91091.09;5028932;28;20194;-86
2023/07/07 10:47:58;;;;;;;6.00;5.20;;;;;;;29.45;12.05;91268.91;5029074;28;20202;-86
2023/07/07 10:50:28;;;;;;;5.68;5.10;;;;;;;29.40;11.04;91030.91;5029814;28;20206;-88
2023/07/07 10:53:17;;;;;;;5.05;4.50;;;;;;;29.41;11.32;90961.63;5030169;28;20229;-87
2023/07/07 10:56:00;;;;;;;5.40;5.00;;;;;;;29.49;11.86;91174.22;5030287;28;20209;-87
2023/07/07 10:58:37;;;;;;;61.80;56.08;;;;;;;29.59;11.61;91066.56;5031904;28;20221;-88
2023/07/07 11:01:17;;;;;;;11.13;10.02;;;;;;;29.64;11.14;90970.66;5017999;28;20252;-86
2023/07/07 11:04:06;;;;;;;6.45;5.88;;;;;;;29.80;10.38;90937.03;5029530;28;20272;-87
2023/07/07 11:06:41;;;;;;;4.90;4.50;;;;;;;29.44;11.11;90804.47;5029836;28;20206;-87
2023/07/07 11:09:29;;;;;;;6.28;4.90;;;;;;;29.41;11.10;90711.81;5029833;28;20201;-86
2023/07/07 11:12:05;;;;;;;5.28;4.80;;;;;;;29.53;10.95;90793.31;5029095;28;20567;-87
2023/07/07 11:14:47;;;;;;;5.50;5.00;;;;;;;29.38;10.92;90688.78;5029598;28;20237;-87
2023/07/07 11:17:32;;;;;;;5.88;5.28;;;;;;;29.50;11.01;90821.38;5029360;28;20201;-87
2023/07/07 11:20:16;;;;;;;5.57;5.07;;;;;;;29.59;11.18;90749.28;5029289;28;20206;-86
2023/07/07 11:23:20;;;;;;;5.30;4.80;;;;;;;29.61;9.91;90568.66;5049592;28;20558;-87
2023/07/07 11:25:53;;;;;;;5.57;5.07;;;;;;;29.86;11.21;90865.69;5049762;28;20581;-86
2023/07/07 11:28:32;;;;;;;5.90;5.40;;;;;;;30.01;8.93;90526.72;5030370;28;20198;-87
2023/07/07 11:31:13;;;;;;;6.45;5.85;;;;;;;30.06;8.55;90393.59;5028951;28;20205;-87
2023/07/07 11:33:51;;;;;;;6.43;5.82;;;;;;;30.22;8.60;90388.19;5028799;28;20702;-87
2023/07/07 11:36:48;;;;;;;6.38;5.78;;;;;;;30.17;8.30;90200.44;5028828;28;20939;-86
2023/07/07 11:39:40;;;;;;;7.07;6.35;;;;;;;30.20;7.52;90168.50;5027973;28;20199;-86
2023/07/07 11:42:24;;;;;;;6.35;5.75;;;;;;;30.19;8.08;90123.84;5028548;28;20202;-86
2023/07/07 11:45:08;;;;;;;6.45;5.70;;;;;;;30.21;9.30;90384.78;5028758;28;20279;-86
2023/07/07 11:47:48;;;;;;;8.63;5.50;;;;;;;30.14;8.92;90231.19;5028479;28;20226;-86
2023/07/07 11:50:23;;;;;;;6.18;5.60;;;;;;;30.14;8.11;90097.84;5028504;28;20691;-87